createdAt,value
2019-01-30T00:03:21.012Z,16.50
2019-01-30T00:08:27.768Z,15.30
2019-01-30T00:13:55.011Z,15.93
2019-01-30T00:19:01.965Z,13.73
2019-01-30T00:24:08.285Z,15.57
2019-01-30T00:29:15.048Z,14.70
2019-01-30T00:34:21.551Z,17.33
2019-01-30T00:39:28.250Z,15.63
2019-01-30T00:44:34.834Z,13.97
2019-01-30T00:49:41.039Z,15.53
2019-01-30T00:54:46.795Z,16.20
2019-01-30T00:59:53.376Z,13.40
2019-01-30T01:05:18.481Z,18.33
2019-01-30T01:10:25.329Z,14.07
2019-01-30T01:15:31.970Z,17.17
2019-01-30T01:20:38.582Z,14.53
2019-01-30T01:26:03.697Z,12.90
2019-01-30T01:31:10.308Z,16.77
2019-01-30T01:36:37.979Z,16.50
2019-01-30T01:41:43.723Z,16.77
2019-01-30T01:46:50.081Z,17.70
2019-01-30T01:51:56.575Z,15.90
2019-01-30T01:57:21.858Z,14.77
2019-01-30T02:02:28.405Z,16.53
2019-01-30T02:07:53.405Z,14.23
2019-01-30T02:12:59.925Z,17.57
2019-01-30T02:18:08.555Z,19.83
2019-01-30T02:23:15.325Z,15.73
2019-01-30T02:28:21.452Z,19.17
2019-01-30T02:33:27.716Z,18.00
2019-01-30T02:38:33.865Z,25.33
2019-01-30T02:43:40.529Z,20.67
2019-01-30T02:48:46.211Z,20.87
2019-01-30T02:53:52.295Z,16.83
2019-01-30T02:58:58.528Z,20.13
2019-01-30T03:04:04.708Z,22.80
2019-01-30T03:09:11.466Z,17.30
2019-01-30T03:14:17.944Z,23.67
2019-01-30T03:19:24.579Z,16.50
2019-01-30T03:24:31.185Z,22.07
2019-01-30T03:29:37.638Z,20.40
2019-01-30T03:34:43.313Z,25.00
2019-01-30T03:39:49.879Z,24.40
2019-01-30T03:44:56.000Z,26.20
2019-01-30T03:50:02.027Z,20.47
2019-01-30T03:55:11.956Z,23.87
2019-01-30T04:00:24.469Z,23.73
2019-01-30T04:05:43.101Z,20.43
2019-01-30T04:10:48.542Z,27.33
2019-01-30T04:15:54.106Z,25.07
2019-01-30T04:21:00.742Z,24.43
2019-01-30T04:26:08.468Z,30.50
2019-01-30T04:31:14.907Z,23.00
2019-01-30T04:36:21.544Z,25.83
2019-01-30T04:41:28.068Z,28.20
2019-01-30T04:46:34.690Z,29.73
2019-01-30T04:51:40.775Z,26.70
2019-01-30T04:56:46.417Z,30.83
2019-01-30T05:02:05.319Z,35.47
2019-01-30T05:07:11.539Z,35.87
2019-01-30T05:12:18.431Z,42.07
2019-01-30T05:17:25.078Z,33.20
2019-01-30T05:22:31.948Z,26.53
2019-01-30T05:27:38.704Z,21.47
2019-01-30T05:32:44.378Z,21.47
2019-01-30T05:37:51.501Z,18.57
2019-01-30T05:42:58.150Z,20.27
2019-01-30T05:48:04.691Z,28.57
2019-01-30T05:53:12.307Z,11.10
2019-01-30T05:58:18.875Z,8.57
2019-01-30T06:03:25.470Z,5.43
2019-01-30T06:08:32.301Z,14.30
2019-01-30T06:14:18.610Z,10.70
2019-01-30T06:19:25.142Z,7.13
2019-01-30T06:24:31.623Z,8.00
2019-01-30T06:30:01.281Z,18.23
2019-01-30T06:35:07.995Z,12.93
2019-01-30T06:40:41.938Z,13.00
2019-01-30T06:45:47.478Z,5.63
2019-01-30T06:50:53.970Z,13.00
2019-01-30T06:56:00.114Z,8.47
2019-01-30T07:01:07.009Z,5.53
2019-01-30T07:06:26.105Z,12.70
2019-01-30T07:11:32.266Z,16.57
2019-01-30T07:16:38.403Z,11.23
2019-01-30T07:21:43.978Z,15.93
2019-01-30T07:26:49.584Z,13.80
2019-01-30T07:31:56.142Z,15.67
2019-01-30T07:37:02.633Z,22.57
2019-01-30T07:42:09.195Z,16.30
2019-01-30T07:47:15.775Z,15.87
2019-01-30T07:52:22.453Z,19.37
2019-01-30T07:57:28.556Z,19.63
2019-01-30T08:02:34.626Z,20.50
2019-01-30T08:07:40.607Z,17.03
2019-01-30T08:12:46.333Z,18.17
2019-01-30T08:17:51.908Z,17.37
2019-01-30T08:22:58.530Z,19.87
2019-01-30T08:28:07.196Z,19.77
2019-01-30T08:33:25.798Z,13.97
2019-01-30T08:38:32.456Z,18.17
2019-01-30T08:43:39.216Z,19.30
2019-01-30T08:48:44.671Z,11.17
2019-01-30T08:53:51.209Z,18.70
2019-01-30T08:58:57.538Z,16.50
2019-01-30T09:04:04.146Z,22.67
2019-01-30T09:09:10.758Z,18.43
2019-01-30T09:14:17.102Z,12.83
2019-01-30T09:19:23.641Z,18.13
2019-01-30T09:24:48.628Z,18.57
2019-01-30T09:29:55.466Z,9.57
2019-01-30T09:35:02.058Z,6.97
2019-01-30T09:40:11.740Z,14.33
2019-01-30T09:45:39.792Z,19.47
2019-01-30T09:50:46.763Z,13.53
2019-01-30T09:55:52.985Z,15.73
2019-01-30T10:01:01.042Z,10.60
2019-01-30T10:06:07.568Z,14.20
2019-01-30T10:11:12.970Z,12.60
2019-01-30T10:16:18.531Z,16.23
2019-01-30T10:21:24.956Z,16.87
2019-01-30T10:26:31.578Z,15.07
2019-01-30T10:31:38.246Z,22.00
2019-01-30T10:36:44.725Z,12.17
2019-01-30T10:41:51.443Z,13.07
2019-01-30T10:46:58.039Z,16.40
2019-01-30T10:52:04.410Z,17.47
2019-01-30T10:57:10.072Z,14.03
2019-01-30T11:02:15.582Z,16.67
2019-01-30T11:07:21.690Z,17.80
2019-01-30T11:12:28.053Z,14.93
2019-01-30T11:17:34.506Z,15.23
2019-01-30T11:22:40.551Z,15.93
2019-01-30T11:27:47.087Z,15.83
2019-01-30T11:32:55.583Z,11.53
2019-01-30T11:38:02.458Z,19.03
2019-01-30T11:43:08.128Z,17.63
2019-01-30T11:48:13.563Z,16.57
2019-01-30T11:53:20.276Z,17.43
2019-01-30T11:58:26.781Z,19.10
2019-01-30T12:03:33.301Z,19.00
2019-01-30T12:08:39.768Z,17.80
2019-01-30T12:13:46.273Z,21.03
2019-01-30T12:18:52.726Z,14.40
2019-01-30T12:23:59.228Z,12.60
2019-01-30T12:29:05.541Z,20.10
2019-01-30T12:34:11.190Z,18.07
2019-01-30T12:39:16.616Z,21.47
2019-01-30T12:44:23.231Z,15.43
2019-01-30T12:49:29.728Z,17.03
2019-01-30T12:54:37.354Z,16.27
2019-01-30T12:59:45.415Z,10.67
2019-01-30T13:04:53.283Z,16.43
2019-01-30T13:09:59.802Z,14.07
2019-01-30T13:15:12.948Z,13.30
2019-01-30T13:20:21.402Z,14.83
2019-01-30T13:25:30.660Z,17.07
2019-01-30T13:30:43.753Z,17.93
2019-01-30T13:35:50.723Z,12.00
2019-01-30T13:40:57.393Z,17.27
2019-01-30T13:46:05.351Z,19.77
2019-01-30T13:51:11.447Z,19.50
2019-01-30T13:56:17.897Z,18.00
2019-01-30T14:01:24.219Z,14.50
2019-01-30T14:06:30.595Z,25.57
2019-01-30T14:11:38.169Z,12.07
2019-01-30T14:16:46.086Z,12.17
2019-01-30T14:22:11.179Z,18.70
2019-01-30T14:27:17.304Z,22.47
2019-01-30T14:32:23.477Z,15.60
2019-01-30T14:37:29.811Z,24.03
2019-01-30T14:42:35.985Z,21.77
2019-01-30T14:47:42.191Z,19.47
2019-01-30T14:52:48.463Z,22.23
2019-01-30T14:57:56.296Z,22.63
2019-01-30T15:03:02.469Z,23.13
2019-01-30T15:08:08.079Z,19.43
2019-01-30T15:13:13.410Z,19.23
2019-01-30T15:18:19.617Z,18.90
2019-01-30T15:23:25.020Z,20.53
2019-01-30T15:28:31.064Z,18.37
2019-01-30T15:33:37.209Z,21.53
2019-01-30T15:38:43.873Z,22.30
2019-01-30T15:43:51.349Z,25.23
2019-01-30T15:48:59.085Z,20.00
2019-01-30T15:54:05.486Z,23.23
2019-01-30T15:59:23.451Z,27.17
2019-01-30T16:04:29.606Z,26.67
2019-01-30T16:09:35.963Z,16.43
2019-01-30T16:14:42.303Z,17.93
2019-01-30T16:19:49.358Z,24.10
2019-01-30T16:24:55.567Z,23.67
2019-01-30T16:30:01.995Z,25.97
2019-01-30T16:35:12.461Z,25.20
2019-01-30T16:40:19.760Z,29.10
2019-01-30T16:45:30.572Z,12.57
2019-01-30T16:50:36.989Z,36.77
2019-01-30T16:55:43.908Z,30.50
2019-01-30T17:00:50.623Z,34.90
2019-01-30T17:06:07.175Z,40.67
2019-01-30T17:11:05.297Z,34.87
2019-01-30T17:16:12.138Z,36.83
2019-01-30T17:21:22.436Z,35.73
2019-01-30T17:26:28.922Z,35.80
2019-01-30T17:31:36.556Z,51.03
2019-01-30T17:36:43.043Z,41.80
2019-01-30T17:41:50.891Z,36.37
2019-01-30T17:46:57.274Z,36.37
2019-01-30T17:52:05.122Z,37.57
2019-01-30T17:57:10.753Z,43.83
2019-01-30T18:02:16.408Z,43.77
2019-01-30T18:07:25.280Z,43.23
2019-01-30T18:12:31.760Z,42.47
2019-01-30T18:17:38.454Z,33.67
2019-01-30T18:22:45.268Z,37.13
2019-01-30T18:27:51.826Z,38.83
2019-01-30T18:32:58.360Z,44.10
2019-01-30T18:38:04.946Z,25.90
2019-01-30T18:43:10.575Z,42.87
2019-01-30T18:48:16.250Z,38.53
2019-01-30T18:53:22.699Z,38.47
2019-01-30T18:58:28.995Z,40.10
2019-01-30T19:03:35.959Z,29.60
2019-01-30T19:09:05.156Z,38.77
2019-01-30T19:14:12.117Z,36.67
2019-01-30T19:19:17.779Z,37.83
2019-01-30T19:24:23.888Z,33.23
2019-01-30T19:29:30.026Z,36.87
2019-01-30T19:34:36.582Z,38.23
2019-01-30T19:39:43.381Z,33.80
2019-01-30T19:44:51.703Z,34.13
2019-01-30T19:49:58.164Z,33.53
2019-01-30T19:55:06.339Z,29.27
2019-01-30T20:00:16.627Z,26.97
2019-01-30T20:05:23.093Z,29.03
2019-01-30T20:10:48.040Z,31.63
2019-01-30T20:15:54.778Z,33.77
2019-01-30T20:21:02.359Z,32.27
2019-01-30T20:26:07.977Z,30.10
2019-01-30T20:31:13.560Z,27.53
2019-01-30T20:36:19.965Z,26.67
2019-01-30T20:41:26.180Z,28.83
2019-01-30T20:46:55.026Z,28.03
2019-01-30T20:52:01.601Z,22.63
2019-01-30T20:57:07.214Z,25.63
2019-01-30T21:02:14.122Z,21.63
2019-01-30T21:07:20.686Z,20.03
2019-01-30T21:12:27.131Z,25.63
2019-01-30T21:17:33.558Z,20.80
2019-01-30T21:22:40.122Z,17.87
2019-01-30T21:27:46.670Z,19.70
2019-01-30T21:32:53.259Z,24.47
2019-01-30T21:37:59.817Z,20.23
2019-01-30T21:43:06.298Z,17.07
2019-01-30T21:48:11.606Z,23.47
2019-01-30T21:53:18.600Z,18.03
2019-01-30T21:58:24.703Z,20.67
2019-01-30T22:03:31.071Z,16.93
2019-01-30T22:08:37.700Z,19.57
2019-01-30T22:13:43.630Z,17.77
2019-01-30T22:18:49.412Z,17.17
2019-01-30T22:24:05.307Z,17.83
2019-01-30T22:29:03.635Z,19.87
2019-01-30T22:34:08.927Z,20.33
2019-01-30T22:39:16.187Z,17.37
2019-01-30T22:44:22.425Z,17.33
2019-01-30T22:49:28.747Z,18.80
2019-01-30T22:54:34.821Z,21.20
2019-01-30T22:59:40.910Z,16.23
2019-01-30T23:05:05.005Z,18.03
2019-01-30T23:10:37.781Z,19.30
2019-01-30T23:15:51.140Z,18.67
2019-01-30T23:21:36.653Z,18.80
2019-01-30T23:26:56.106Z,16.63
2019-01-30T23:32:18.194Z,16.13
2019-01-30T23:37:52.959Z,19.00
2019-01-30T23:43:27.411Z,15.47
2019-01-30T23:48:43.534Z,14.27
2019-01-30T23:54:16.510Z,16.47
2019-01-30T23:59:38.395Z,14.80
